createdAt,value
2019-04-07T00:00:15.262Z,44.07
2019-04-07T00:01:15.810Z,44.06
2019-04-07T00:02:16.379Z,44.07
2019-04-07T00:03:16.363Z,44.06
2019-04-07T00:04:16.983Z,44.07
2019-04-07T00:05:17.350Z,44.07
2019-04-07T00:06:17.776Z,44.09
2019-04-07T00:07:18.388Z,44.10
2019-04-07T00:08:18.720Z,44.09
2019-04-07T00:09:19.195Z,44.08
2019-04-07T00:10:20.323Z,44.13
2019-04-07T00:11:20.137Z,44.15
2019-04-07T00:12:20.607Z,44.10
2019-04-07T00:13:21.078Z,44.15
2019-04-07T00:14:21.549Z,44.15
2019-04-07T00:15:22.023Z,44.13
2019-04-07T00:16:22.493Z,44.12
2019-04-07T00:17:22.966Z,44.14
2019-04-07T00:18:23.438Z,44.16
2019-04-07T00:19:23.907Z,44.15
2019-04-07T00:20:24.384Z,44.16
2019-04-07T00:21:24.852Z,44.17
2019-04-07T00:22:25.337Z,44.19
2019-04-07T00:23:25.797Z,44.17
2019-04-07T00:24:26.269Z,44.17
2019-04-07T00:25:26.741Z,44.18
2019-04-07T00:26:27.213Z,44.20
2019-04-07T00:27:27.686Z,44.19
2019-04-07T00:28:28.157Z,44.23
2019-04-07T00:29:28.855Z,44.22
2019-04-07T00:30:29.286Z,44.21
2019-04-07T00:31:29.628Z,44.32
2019-04-07T00:32:30.048Z,44.42
2019-04-07T00:33:30.961Z,44.58
2019-04-07T00:34:31.082Z,44.70
2019-04-07T00:35:33.239Z,44.70
2019-04-07T00:36:31.939Z,44.74
2019-04-07T00:37:32.747Z,44.83
2019-04-07T00:38:33.210Z,44.93
2019-04-07T00:39:33.548Z,44.98
2019-04-07T00:40:33.882Z,45.05
2019-04-07T00:41:34.297Z,45.17
2019-04-07T00:42:34.771Z,45.29
2019-04-07T00:43:35.240Z,45.40
2019-04-07T00:44:35.709Z,45.49
2019-04-07T00:45:36.181Z,45.58
2019-04-07T00:46:37.155Z,45.66
2019-04-07T00:47:37.265Z,45.72
2019-04-07T00:48:37.594Z,45.82
2019-04-07T00:49:38.063Z,45.93
2019-04-07T00:50:38.531Z,45.99
2019-04-07T00:51:39.010Z,46.08
2019-04-07T00:52:39.472Z,46.13
2019-04-07T00:53:39.942Z,46.17
2019-04-07T00:54:40.869Z,46.21
2019-04-07T00:55:40.884Z,46.24
2019-04-07T00:56:41.350Z,46.29
2019-04-07T00:57:41.816Z,46.30
2019-04-07T00:58:42.302Z,46.33
2019-04-07T00:59:42.757Z,46.30
2019-04-07T01:00:43.460Z,46.27
2019-04-07T01:01:43.743Z,46.24
2019-04-07T01:02:44.167Z,46.15
2019-04-07T01:03:44.626Z,45.98
2019-04-07T01:04:45.094Z,45.86
2019-04-07T01:05:45.817Z,45.70
2019-04-07T01:06:46.032Z,45.63
2019-04-07T01:07:46.500Z,45.54
2019-04-07T01:08:46.967Z,45.41
2019-04-07T01:09:47.961Z,45.31
2019-04-07T01:10:48.079Z,45.23
2019-04-07T01:11:48.577Z,45.13
2019-04-07T01:12:48.926Z,45.05
2019-04-07T01:13:49.316Z,44.99
2019-04-07T01:14:49.774Z,44.89
2019-04-07T01:15:50.616Z,44.85
2019-04-07T01:16:50.791Z,44.75
2019-04-07T01:17:51.181Z,44.67
2019-04-07T01:18:51.994Z,44.65
2019-04-07T01:19:52.119Z,44.56
2019-04-07T01:20:53.042Z,44.52
2019-04-07T01:21:53.586Z,44.47
2019-04-07T01:22:53.525Z,44.42
2019-04-07T01:23:54.446Z,44.38
2019-04-07T01:24:54.824Z,44.34
2019-04-07T01:25:55.282Z,44.30
2019-04-07T01:26:55.838Z,44.26
2019-04-07T01:27:55.869Z,44.21
2019-04-07T01:28:56.475Z,44.22
2019-04-07T01:29:56.887Z,44.18
2019-04-07T01:30:57.862Z,44.16
2019-04-07T01:31:58.387Z,44.14
2019-04-07T01:32:58.220Z,44.12
2019-04-07T01:33:58.747Z,44.11
2019-04-07T01:34:59.618Z,44.12
2019-04-07T01:35:59.844Z,44.12
2019-04-07T01:37:00.100Z,44.11
2019-04-07T01:38:00.571Z,44.03
2019-04-07T01:39:01.453Z,44.05
2019-04-07T01:40:01.591Z,44.07
2019-04-07T01:41:02.032Z,44.06
2019-04-07T01:42:02.622Z,44.02
2019-04-07T01:43:02.921Z,44.08
2019-04-07T01:44:03.556Z,44.06
2019-04-07T01:45:03.868Z,44.07
2019-04-07T01:46:04.335Z,44.07
2019-04-07T01:47:04.805Z,44.10
2019-04-07T01:48:05.275Z,44.10
2019-04-07T01:49:06.418Z,44.15
2019-04-07T01:50:06.551Z,44.11
2019-04-07T01:51:06.687Z,44.10
2019-04-07T01:52:07.192Z,44.13
2019-04-07T01:53:07.628Z,44.13
2019-04-07T01:54:08.640Z,44.10
2019-04-07T01:55:09.141Z,44.13
2019-04-07T01:56:09.165Z,44.15
2019-04-07T01:57:10.166Z,44.15
2019-04-07T01:58:09.988Z,44.16
2019-04-07T01:59:11.394Z,44.16
2019-04-07T02:00:11.132Z,44.16
2019-04-07T02:01:11.991Z,44.16
2019-04-07T02:02:12.510Z,44.17
2019-04-07T02:03:12.343Z,44.21
2019-04-07T02:04:12.826Z,44.21
2019-04-07T02:05:13.419Z,44.22
2019-04-07T02:06:13.757Z,44.24
2019-04-07T02:07:14.228Z,44.24
2019-04-07T02:08:14.702Z,44.25
2019-04-07T02:09:15.175Z,44.26
2019-04-07T02:10:16.200Z,44.24
2019-04-07T02:11:16.806Z,44.24
2019-04-07T02:12:16.985Z,44.25
2019-04-07T02:13:17.481Z,44.26
2019-04-07T02:14:17.539Z,44.27
2019-04-07T02:15:18.513Z,44.28
2019-04-07T02:16:19.169Z,44.27
2019-04-07T02:17:19.828Z,44.26
2019-04-07T02:18:19.960Z,44.29
2019-04-07T02:19:20.419Z,44.30
2019-04-07T02:20:20.746Z,44.32
2019-04-07T02:21:20.835Z,44.34
2019-04-07T02:22:21.317Z,44.34
2019-04-07T02:23:21.779Z,44.38
2019-04-07T02:24:22.251Z,44.41
2019-04-07T02:25:22.723Z,44.38
2019-04-07T02:26:23.562Z,44.39
2019-04-07T02:27:23.987Z,44.38
2019-04-07T02:28:24.141Z,44.37
2019-04-07T02:29:24.694Z,44.38
2019-04-07T02:30:25.086Z,44.36
2019-04-07T02:31:25.558Z,44.40
2019-04-07T02:32:27.588Z,44.41
2019-04-07T02:33:26.506Z,44.41
2019-04-07T02:34:27.852Z,44.36
2019-04-07T02:35:28.183Z,44.34
2019-04-07T02:36:30.725Z,44.39
2019-04-07T02:37:28.392Z,44.41
2019-04-07T02:38:29.520Z,44.43
2019-04-07T02:39:29.410Z,44.44
2019-04-07T02:40:29.808Z,44.54
2019-04-07T02:41:30.645Z,44.70
2019-04-07T02:42:30.752Z,44.83
2019-04-07T02:43:31.224Z,44.89
2019-04-07T02:44:31.696Z,44.91
2019-04-07T02:45:32.325Z,45.00
2019-04-07T02:46:33.283Z,45.07
2019-04-07T02:47:33.289Z,45.13
2019-04-07T02:48:33.826Z,45.20
2019-04-07T02:49:34.060Z,45.28
2019-04-07T02:50:34.900Z,45.39
2019-04-07T02:51:35.135Z,45.50
2019-04-07T02:52:35.714Z,45.59
2019-04-07T02:53:36.931Z,45.69
2019-04-07T02:54:36.418Z,45.76
2019-04-07T02:55:37.424Z,45.84
2019-04-07T02:56:37.352Z,45.94
2019-04-07T02:57:37.825Z,45.98
2019-04-07T02:58:38.293Z,46.08
2019-04-07T02:59:42.262Z,46.14
2019-04-07T03:00:39.418Z,46.20
2019-04-07T03:01:39.712Z,46.25
2019-04-07T03:02:41.121Z,46.30
2019-04-07T03:03:40.742Z,46.33
2019-04-07T03:04:41.619Z,46.36
2019-04-07T03:05:42.188Z,46.42
2019-04-07T03:06:47.789Z,46.41
2019-04-07T03:07:43.096Z,46.39
2019-04-07T03:08:42.997Z,46.36
2019-04-07T03:09:44.004Z,46.32
2019-04-07T03:10:44.215Z,46.30
2019-04-07T03:11:44.621Z,46.12
2019-04-07T03:12:45.354Z,45.96
2019-04-07T03:13:45.325Z,45.85
2019-04-07T03:14:45.793Z,45.72
2019-04-07T03:15:46.284Z,45.61
2019-04-07T03:16:47.497Z,45.52
2019-04-07T03:17:47.795Z,45.39
2019-04-07T03:18:47.665Z,45.32
2019-04-07T03:19:48.621Z,45.21
2019-04-07T03:20:49.466Z,45.14
2019-04-07T03:21:49.320Z,45.07
2019-04-07T03:22:50.609Z,44.99
2019-04-07T03:23:51.196Z,44.97
2019-04-07T03:24:50.482Z,44.84
2019-04-07T03:25:50.999Z,44.82
2019-04-07T03:26:51.577Z,44.75
2019-04-07T03:27:52.779Z,44.67
2019-04-07T03:28:52.574Z,44.62
2019-04-07T03:29:53.370Z,44.56
2019-04-07T03:30:54.745Z,44.49
2019-04-07T03:31:55.992Z,44.45
2019-04-07T03:32:55.084Z,44.42
2019-04-07T03:33:56.441Z,44.40
2019-04-07T03:34:56.276Z,44.38
2019-04-07T03:35:56.795Z,44.30
2019-04-07T03:37:21.684Z,44.31
2019-04-07T03:37:57.156Z,44.25
2019-04-07T03:38:57.687Z,44.24
2019-04-07T03:39:57.517Z,44.20
2019-04-07T03:40:59.006Z,44.20
2019-04-07T03:41:59.198Z,44.19
2019-04-07T03:42:59.354Z,44.18
2019-04-07T03:43:59.389Z,44.17
2019-04-07T03:45:00.676Z,44.17
2019-04-07T03:46:00.389Z,44.16
2019-04-07T03:47:01.487Z,44.13
2019-04-07T03:48:02.203Z,44.13
2019-04-07T03:49:02.045Z,44.14
2019-04-07T03:50:03.295Z,44.17
2019-04-07T03:51:03.150Z,44.15
2019-04-07T03:52:03.580Z,44.15
2019-04-07T03:53:03.624Z,44.13
2019-04-07T03:54:04.095Z,44.15
2019-04-07T03:55:04.895Z,44.13
2019-04-07T03:56:05.863Z,44.14
2019-04-07T03:57:05.510Z,44.13
2019-04-07T03:58:05.977Z,44.17
2019-04-07T03:59:06.448Z,44.14
2019-04-07T04:00:06.924Z,44.13
2019-04-07T04:01:08.175Z,44.17
2019-04-07T04:02:07.995Z,44.16
2019-04-07T04:03:08.762Z,44.13
2019-04-07T04:04:09.583Z,44.15
2019-04-07T04:05:09.281Z,44.17
2019-04-07T04:06:10.587Z,44.21
2019-04-07T04:07:20.546Z,44.20
2019-04-07T04:08:11.236Z,44.21
2019-04-07T04:09:11.391Z,44.21
2019-04-07T04:10:11.632Z,44.25
2019-04-07T04:11:12.102Z,44.23
2019-04-07T04:12:12.574Z,44.26
2019-04-07T04:13:13.049Z,44.23
2019-04-07T04:14:13.518Z,44.23
2019-04-07T04:15:14.991Z,44.24
2019-04-07T04:16:14.570Z,44.25
2019-04-07T04:17:14.943Z,44.28
2019-04-07T04:18:16.202Z,44.26
2019-04-07T04:19:15.878Z,44.27
2019-04-07T04:20:16.349Z,44.29
2019-04-07T04:21:17.704Z,44.30
2019-04-07T04:22:17.293Z,44.28
2019-04-07T04:23:17.843Z,44.25
2019-04-07T04:24:18.552Z,44.29
2019-04-07T04:25:19.125Z,44.27
2019-04-07T04:26:19.179Z,44.32
2019-04-07T04:27:20.395Z,44.38
2019-04-07T04:28:20.385Z,44.37
2019-04-07T04:29:20.596Z,44.40
2019-04-07T04:30:21.159Z,44.40
2019-04-07T04:31:21.726Z,44.38
2019-04-07T04:32:22.913Z,44.41
2019-04-07T04:33:23.368Z,44.38
2019-04-07T04:34:23.652Z,44.37
2019-04-07T04:35:24.278Z,44.42
2019-04-07T04:36:24.058Z,44.56
2019-04-07T04:37:37.597Z,44.72
2019-04-07T04:38:24.850Z,44.83
2019-04-07T04:39:25.325Z,44.88
2019-04-07T04:40:25.793Z,44.89
2019-04-07T04:41:27.275Z,44.97
2019-04-07T04:42:26.870Z,45.07
2019-04-07T04:43:27.558Z,45.11
2019-04-07T04:44:28.405Z,45.19
2019-04-07T04:45:28.150Z,45.29
2019-04-07T04:46:28.623Z,45.41
2019-04-07T04:47:29.098Z,45.53
2019-04-07T04:48:29.994Z,45.62
2019-04-07T04:49:30.767Z,45.71
2019-04-07T04:50:30.543Z,45.79
2019-04-07T04:51:35.047Z,45.87
2019-04-07T04:52:31.763Z,45.95
2019-04-07T04:53:32.063Z,46.05
2019-04-07T04:54:33.277Z,46.12
2019-04-07T04:55:32.856Z,46.19
2019-04-07T04:56:33.346Z,46.25
2019-04-07T04:57:33.976Z,46.29
2019-04-07T04:58:34.855Z,46.29
2019-04-07T04:59:35.230Z,46.36
2019-04-07T05:00:36.203Z,46.40
2019-04-07T05:01:36.206Z,46.43
2019-04-07T05:02:36.270Z,46.43
2019-04-07T05:03:36.606Z,46.39
2019-04-07T05:04:37.418Z,46.33
2019-04-07T05:05:38.025Z,46.25
2019-04-07T05:06:38.010Z,46.14
2019-04-07T05:07:50.994Z,45.95
2019-04-07T05:08:39.222Z,45.83
2019-04-07T05:09:46.134Z,45.71
2019-04-07T05:10:40.406Z,45.63
2019-04-07T05:11:40.805Z,45.52
2019-04-07T05:12:41.217Z,45.44
2019-04-07T05:13:41.288Z,45.33
2019-04-07T05:14:42.117Z,45.23
2019-04-07T05:15:42.223Z,45.16
2019-04-07T05:16:42.691Z,45.07
2019-04-07T05:17:43.593Z,44.97
2019-04-07T05:18:43.704Z,44.92
2019-04-07T05:19:44.356Z,44.83
2019-04-07T05:20:45.246Z,44.80
2019-04-07T05:21:45.037Z,44.77
2019-04-07T05:22:46.045Z,44.68
2019-04-07T05:23:46.060Z,44.62
2019-04-07T05:25:46.914Z,44.55
2019-04-07T05:26:47.742Z,44.52
2019-04-07T05:27:48.276Z,44.47
2019-04-07T05:28:48.375Z,44.42
2019-04-07T05:29:49.440Z,44.38
2019-04-07T05:30:49.255Z,44.37
2019-04-07T05:31:50.301Z,44.35
2019-04-07T05:32:50.398Z,44.30
2019-04-07T05:33:51.038Z,44.30
2019-04-07T05:34:51.135Z,44.28
2019-04-07T05:35:53.234Z,44.26
2019-04-07T05:36:52.210Z,44.24
2019-04-07T05:38:02.300Z,44.23
2019-04-07T05:38:53.235Z,44.20
2019-04-07T05:39:53.780Z,44.19
2019-04-07T05:40:53.953Z,44.17
2019-04-07T05:42:55.473Z,44.16
2019-04-07T05:43:55.762Z,44.16
2019-04-07T05:44:56.060Z,44.13
2019-04-07T05:45:56.507Z,44.14
2019-04-07T05:46:56.997Z,44.12
2019-04-07T05:47:57.804Z,44.13
2019-04-07T05:48:57.716Z,44.14
2019-04-07T05:49:59.946Z,44.17
2019-04-07T05:50:59.986Z,44.16
2019-04-07T05:52:59.600Z,44.17
2019-04-07T05:54:00.429Z,44.19
2019-04-07T05:55:01.277Z,44.16
2019-04-07T05:56:01.091Z,44.18
2019-04-07T05:57:01.822Z,44.19
2019-04-07T05:58:05.140Z,44.19
2019-04-07T05:59:02.779Z,44.19
2019-04-07T06:00:04.249Z,44.15
2019-04-07T06:01:03.362Z,44.17
2019-04-07T06:02:03.964Z,44.20
2019-04-07T06:03:06.637Z,44.17
2019-04-07T06:04:05.535Z,44.19
2019-04-07T06:05:05.319Z,44.21
2019-04-07T06:06:05.728Z,44.19
2019-04-07T06:07:06.924Z,44.19
2019-04-07T06:08:23.689Z,44.20
2019-04-07T06:09:07.232Z,44.23
2019-04-07T06:10:08.003Z,44.25
2019-04-07T06:11:08.079Z,44.26
2019-04-07T06:12:09.822Z,44.24
2019-04-07T06:13:11.826Z,44.25
2019-04-07T06:14:11.303Z,44.26
2019-04-07T06:15:10.603Z,44.25
2019-04-07T06:16:10.466Z,44.27
2019-04-07T06:17:10.905Z,44.27
2019-04-07T06:18:11.760Z,44.28
2019-04-07T06:19:11.853Z,44.29
2019-04-07T06:20:14.903Z,44.30
2019-04-07T06:21:15.315Z,44.31
2019-04-07T06:22:13.268Z,44.29
2019-04-07T06:23:13.838Z,44.30
2019-04-07T06:24:14.620Z,44.32
2019-04-07T06:25:14.684Z,44.33
2019-04-07T06:26:15.158Z,44.36
2019-04-07T06:27:17.005Z,44.34
2019-04-07T06:28:17.212Z,44.35
2019-04-07T06:29:17.020Z,44.35
2019-04-07T06:30:17.517Z,44.36
2019-04-07T06:31:18.377Z,44.37
2019-04-07T06:32:18.567Z,44.38
2019-04-07T06:33:18.461Z,44.40
2019-04-07T06:34:18.933Z,44.38
2019-04-07T06:35:19.404Z,44.38
2019-04-07T06:36:20.285Z,44.38
2019-04-07T06:37:21.012Z,44.39
2019-04-07T06:38:30.225Z,44.37
2019-04-07T06:39:21.533Z,44.38
2019-04-07T06:40:22.263Z,44.38
2019-04-07T06:41:24.272Z,44.38
2019-04-07T06:42:22.966Z,44.38
2019-04-07T06:43:23.182Z,44.35
2019-04-07T06:44:24.248Z,44.38
2019-04-07T06:45:24.468Z,44.43
2019-04-07T06:46:27.665Z,44.58
2019-04-07T06:47:25.071Z,44.69
2019-04-07T06:48:25.566Z,44.79
2019-04-07T06:49:28.405Z,44.85
2019-04-07T06:50:26.998Z,44.89
2019-04-07T06:51:29.182Z,44.97
2019-04-07T06:52:27.874Z,45.04
2019-04-07T06:53:28.003Z,45.09
2019-04-07T06:54:28.704Z,45.14
2019-04-07T06:55:29.765Z,45.23
2019-04-07T06:56:32.144Z,45.34
2019-04-07T06:57:29.923Z,45.44
2019-04-07T06:58:31.036Z,45.54
2019-04-07T06:59:30.732Z,45.62
2019-04-07T07:00:31.203Z,45.67
2019-04-07T07:01:32.231Z,45.76
2019-04-07T07:02:32.750Z,45.84
2019-04-07T07:03:35.975Z,45.93
2019-04-07T07:04:33.087Z,46.00
2019-04-07T07:05:35.117Z,46.06
2019-04-07T07:06:34.065Z,46.09
2019-04-07T07:07:34.652Z,46.16
2019-04-07T07:08:43.766Z,46.18
2019-04-07T07:09:35.948Z,46.21
2019-04-07T07:10:38.973Z,46.25
2019-04-07T07:11:40.701Z,46.26
2019-04-07T07:12:39.126Z,46.27
2019-04-07T07:13:41.426Z,46.23
2019-04-07T07:14:43.273Z,46.21
2019-04-07T07:15:38.599Z,46.18
2019-04-07T07:16:42.431Z,46.09
2019-04-07T07:17:39.204Z,45.97
2019-04-07T07:18:40.289Z,45.82
2019-04-07T07:19:40.195Z,45.67
2019-04-07T07:20:40.590Z,45.50
2019-04-07T07:21:41.352Z,45.41
2019-04-07T07:22:42.380Z,45.30
2019-04-07T07:23:45.278Z,45.20
2019-04-07T07:24:42.779Z,45.13
2019-04-07T07:25:42.925Z,45.03
2019-04-07T07:26:44.089Z,44.95
2019-04-07T07:27:44.481Z,44.87
2019-04-07T07:28:45.502Z,44.79
2019-04-07T07:29:45.951Z,44.72
2019-04-07T07:30:49.577Z,44.65
2019-04-07T07:31:45.735Z,44.61
2019-04-07T07:32:46.414Z,44.55
2019-04-07T07:33:46.706Z,44.48
2019-04-07T07:34:47.677Z,44.40
2019-04-07T07:35:49.211Z,44.37
2019-04-07T07:36:51.903Z,44.32
2019-04-07T07:37:48.548Z,44.28
2019-04-07T07:38:56.865Z,44.25
2019-04-07T07:39:49.489Z,44.24
2019-04-07T07:40:50.135Z,44.22
2019-04-07T07:41:51.715Z,44.18
2019-04-07T07:42:51.089Z,44.17
2019-04-07T07:43:51.438Z,44.13
2019-04-07T07:44:52.481Z,44.09
2019-04-07T07:45:52.304Z,44.06
2019-04-07T07:46:52.835Z,44.04
2019-04-07T07:47:54.093Z,44.02
2019-04-07T07:48:57.092Z,44.02
2019-04-07T07:49:54.187Z,43.97
2019-04-07T07:50:54.697Z,43.93
2019-04-07T07:51:55.122Z,43.92
2019-04-07T07:52:56.174Z,43.90
2019-04-07T07:53:58.644Z,43.91
2019-04-07T07:54:59.792Z,43.87
2019-04-07T07:55:57.590Z,43.91
2019-04-07T07:56:57.998Z,43.89
2019-04-07T07:57:59.203Z,43.89
2019-04-07T07:59:00.870Z,43.84
2019-04-07T07:59:59.744Z,43.86
2019-04-07T08:01:01.094Z,43.84
2019-04-07T08:01:59.829Z,43.87
2019-04-07T08:03:00.345Z,43.86
2019-04-07T08:04:00.845Z,43.87
2019-04-07T08:05:01.790Z,43.85
2019-04-07T08:06:04.634Z,43.89
2019-04-07T08:07:02.655Z,43.91
2019-04-07T08:08:02.656Z,43.93
2019-04-07T08:09:12.117Z,43.92
2019-04-07T08:10:03.621Z,43.93
2019-04-07T08:11:04.548Z,43.92
2019-04-07T08:12:05.112Z,43.96
2019-04-07T08:13:07.524Z,43.98
2019-04-07T08:14:05.485Z,43.97
2019-04-07T08:15:05.989Z,43.98
2019-04-07T08:16:06.449Z,44.00
2019-04-07T08:17:07.233Z,44.07
2019-04-07T08:18:08.441Z,44.06
2019-04-07T08:19:09.378Z,44.08
2019-04-07T08:20:08.313Z,44.16
2019-04-07T08:21:11.675Z,44.24
2019-04-07T08:22:09.258Z,44.24
2019-04-07T08:23:11.806Z,44.26
2019-04-07T08:24:10.204Z,44.26
2019-04-07T08:25:10.958Z,44.27
2019-04-07T08:26:11.731Z,44.31
2019-04-07T08:27:11.657Z,44.32
2019-04-07T08:28:12.509Z,44.33
2019-04-07T08:29:13.023Z,44.35
2019-04-07T08:30:13.886Z,44.28
2019-04-07T08:31:17.763Z,44.25
2019-04-07T08:32:13.982Z,44.20
2019-04-07T08:33:14.725Z,44.28
2019-04-07T08:34:14.927Z,44.41
2019-04-07T08:35:15.434Z,44.51
2019-04-07T08:36:15.869Z,44.53
2019-04-07T08:37:16.345Z,44.59
2019-04-07T08:38:19.994Z,44.64
2019-04-07T08:40:17.759Z,44.75
2019-04-07T08:41:18.961Z,44.84
2019-04-07T08:42:19.719Z,44.95
2019-04-07T08:43:21.911Z,45.08
2019-04-07T08:44:20.434Z,45.22
2019-04-07T08:45:21.110Z,45.31
2019-04-07T08:46:20.590Z,45.39
2019-04-07T08:47:22.251Z,45.48
2019-04-07T08:48:21.618Z,45.54
2019-04-07T08:49:24.126Z,45.61
2019-04-07T08:50:22.782Z,45.69
2019-04-07T08:51:22.939Z,45.79
2019-04-07T08:52:23.465Z,45.85
2019-04-07T08:53:23.961Z,45.91
2019-04-07T08:54:24.348Z,45.95
2019-04-07T08:55:24.940Z,46.00
2019-04-07T08:56:26.607Z,46.03
2019-04-07T08:57:29.395Z,46.06
2019-04-07T08:58:29.638Z,46.09
2019-04-07T09:00:27.191Z,46.09
2019-04-07T09:01:29.591Z,46.03
2019-04-07T09:02:30.099Z,46.01
2019-04-07T09:03:29.166Z,45.87
2019-04-07T09:04:29.492Z,45.76
2019-04-07T09:05:31.095Z,45.61
2019-04-07T09:06:30.366Z,45.52
2019-04-07T09:07:31.002Z,45.41
2019-04-07T09:08:34.687Z,45.30
2019-04-07T09:09:35.966Z,45.20
2019-04-07T09:10:33.535Z,45.10
2019-04-07T09:11:32.334Z,45.04
2019-04-07T09:12:32.779Z,44.96
2019-04-07T09:13:34.187Z,44.88
2019-04-07T09:14:37.828Z,44.80
2019-04-07T09:15:34.880Z,44.75
2019-04-07T09:16:34.654Z,44.68
2019-04-07T09:17:41.128Z,44.63
2019-04-07T09:18:35.590Z,44.64
2019-04-07T09:19:36.758Z,44.51
2019-04-07T09:20:40.317Z,44.44
2019-04-07T09:21:40.277Z,44.38
2019-04-07T09:22:37.809Z,44.34
2019-04-07T09:23:38.141Z,44.29
2019-04-07T09:24:38.574Z,44.26
2019-04-07T09:25:40.574Z,44.25
2019-04-07T09:26:42.094Z,44.20
2019-04-07T09:27:39.910Z,44.16
2019-04-07T09:28:40.279Z,44.12
2019-04-07T09:29:41.049Z,44.12
2019-04-07T09:30:41.217Z,44.08
2019-04-07T09:31:41.687Z,44.02
2019-04-07T09:32:42.751Z,44.00
2019-04-07T09:33:43.263Z,43.99
2019-04-07T09:34:43.094Z,43.97
2019-04-07T09:35:43.742Z,43.96
2019-04-07T09:36:44.063Z,43.94
2019-04-07T09:37:44.537Z,43.89
2019-04-07T09:38:44.974Z,43.90
2019-04-07T09:39:56.943Z,43.89
2019-04-07T09:40:48.173Z,43.90
2019-04-07T09:42:47.057Z,43.85
2019-04-07T09:43:47.325Z,43.87
2019-04-07T09:44:47.796Z,43.84
2019-04-07T09:45:49.043Z,43.86
2019-04-07T09:46:50.290Z,43.88
2019-04-07T09:47:49.359Z,43.85
2019-04-07T09:48:51.688Z,43.84
2019-04-07T09:49:52.571Z,43.87
2019-04-07T09:50:51.357Z,43.85
2019-04-07T09:51:51.793Z,43.86
2019-04-07T09:53:52.234Z,43.84
2019-04-07T09:54:54.613Z,43.85
2019-04-07T09:55:55.593Z,43.86
2019-04-07T09:56:53.448Z,43.83
2019-04-07T09:57:54.836Z,43.87
2019-04-07T09:58:54.599Z,43.89
2019-04-07T09:59:55.690Z,43.89
2019-04-07T10:00:57.393Z,43.93
2019-04-07T10:01:59.316Z,43.91
2019-04-07T10:02:56.278Z,43.92
2019-04-07T10:03:56.744Z,43.94
2019-04-07T10:05:57.689Z,43.89
2019-04-07T10:06:58.157Z,43.92
2019-04-07T10:07:58.995Z,43.93
2019-04-07T10:08:59.941Z,43.96
2019-04-07T10:10:10.010Z,43.93
2019-04-07T10:11:00.654Z,43.96
2019-04-07T10:12:00.525Z,43.94
2019-04-07T10:13:00.991Z,43.99
2019-04-07T10:15:02.186Z,43.96
2019-04-07T10:16:02.432Z,44.00
2019-04-07T10:17:02.950Z,44.01
2019-04-07T10:18:04.082Z,44.04
2019-04-07T10:19:03.821Z,44.06
2019-04-07T10:20:05.075Z,44.04
2019-04-07T10:21:05.352Z,44.09
2019-04-07T10:22:05.441Z,44.08
2019-04-07T10:23:05.714Z,44.10
2019-04-07T10:24:06.413Z,44.11
2019-04-07T10:25:07.428Z,44.12
2019-04-07T10:26:07.309Z,44.12
2019-04-07T10:27:08.143Z,44.10
2019-04-07T10:28:10.541Z,44.09
2019-04-07T10:29:08.546Z,44.08
2019-04-07T10:30:09.817Z,44.05
2019-04-07T10:31:09.490Z,44.15
2019-04-07T10:32:09.963Z,44.31
2019-04-07T10:33:10.438Z,44.47
2019-04-07T10:34:13.253Z,44.56
2019-04-07T10:35:11.380Z,44.61
2019-04-07T10:36:11.852Z,44.68
2019-04-07T10:37:12.328Z,44.75
2019-04-07T10:38:13.000Z,44.83
2019-04-07T10:39:13.267Z,44.87
2019-04-07T10:40:19.475Z,44.96
2019-04-07T10:41:15.148Z,45.05
2019-04-07T10:42:14.690Z,45.16
2019-04-07T10:43:15.157Z,45.25
2019-04-07T10:44:16.138Z,45.34
2019-04-07T10:45:16.342Z,45.42
2019-04-07T10:47:17.128Z,45.55
2019-04-07T10:48:17.956Z,45.64
2019-04-07T10:49:17.980Z,45.73
2019-04-07T10:50:18.454Z,45.80
2019-04-07T10:51:19.678Z,45.86
2019-04-07T10:53:20.561Z,45.98
2019-04-07T10:54:21.232Z,46.01
2019-04-07T10:55:20.999Z,46.02
2019-04-07T10:56:21.318Z,46.03
2019-04-07T10:57:22.199Z,46.08
2019-04-07T10:58:22.993Z,46.09
2019-04-07T10:59:22.670Z,46.08
2019-04-07T11:00:24.061Z,46.02
2019-04-07T11:02:24.948Z,45.82
2019-04-07T11:03:24.941Z,45.71
2019-04-07T11:04:25.015Z,45.60
2019-04-07T11:05:26.092Z,45.50
2019-04-07T11:06:25.951Z,45.43
2019-04-07T11:07:26.681Z,45.31
2019-04-07T11:08:26.944Z,45.23
2019-04-07T11:09:28.293Z,45.11
2019-04-07T11:10:34.290Z,45.02
2019-04-07T11:11:28.290Z,44.96
2019-04-07T11:12:28.811Z,44.88
2019-04-07T11:13:29.875Z,44.80
2019-04-07T11:14:29.697Z,44.74
2019-04-07T11:15:30.641Z,44.68
2019-04-07T11:16:31.234Z,44.60
2019-04-07T11:17:31.578Z,44.57
2019-04-07T11:18:32.498Z,44.53
2019-04-07T11:19:32.249Z,44.44
2019-04-07T11:21:33.762Z,44.37
2019-04-07T11:22:36.104Z,44.29
2019-04-07T11:23:33.919Z,44.25
2019-04-07T11:24:35.110Z,44.22
2019-04-07T11:25:34.857Z,44.17
2019-04-07T11:26:35.527Z,44.13
2019-04-07T11:27:36.544Z,44.13
2019-04-07T11:29:38.528Z,44.09
2019-04-07T11:31:38.537Z,44.06
2019-04-07T11:32:38.411Z,44.04
2019-04-07T11:33:39.524Z,44.01
2019-04-07T11:34:39.109Z,44.01
2019-04-07T11:35:40.088Z,43.97
2019-04-07T11:36:40.679Z,43.97
2019-04-07T11:37:40.805Z,43.95
2019-04-07T11:38:40.964Z,43.94
2019-04-07T11:39:41.436Z,43.93
2019-04-07T11:40:47.603Z,43.95
2019-04-07T11:41:43.331Z,43.94
2019-04-07T11:42:43.052Z,43.93
2019-04-07T11:43:43.519Z,43.91
2019-04-07T11:44:44.191Z,43.90
2019-04-07T11:45:56.086Z,43.91
2019-04-07T11:47:45.914Z,43.93
2019-04-07T11:48:45.680Z,43.92
2019-04-07T11:49:46.208Z,43.97
2019-04-07T11:50:47.177Z,43.97
2019-04-07T11:51:47.831Z,43.94
2019-04-07T11:52:48.293Z,43.94
2019-04-07T11:53:48.234Z,43.94
2019-04-07T11:54:49.217Z,43.96
2019-04-07T11:55:48.972Z,43.99
2019-04-07T11:56:49.442Z,43.97
2019-04-07T11:58:02.945Z,43.98
2019-04-07T12:00:52.579Z,44.00
2019-04-07T12:01:52.004Z,44.00
2019-04-07T12:02:53.567Z,44.03
2019-04-07T12:03:54.545Z,44.03
2019-04-07T12:05:53.942Z,44.04
2019-04-07T12:06:54.703Z,44.07
2019-04-07T12:07:57.183Z,44.09
2019-04-07T12:08:55.657Z,44.09
2019-04-07T12:09:56.304Z,44.10
2019-04-07T12:11:01.727Z,44.07
2019-04-07T12:11:57.199Z,44.10
2019-04-07T12:14:58.797Z,44.50
2019-04-07T12:15:59.300Z,44.62
2019-04-07T12:19:00.176Z,44.85
2019-04-07T12:21:03.983Z,44.96
2019-04-07T12:23:01.716Z,45.14
2019-04-07T12:26:05.187Z,45.43
2019-04-07T12:27:03.683Z,45.50
2019-04-07T12:28:04.071Z,45.57
2019-04-07T12:29:04.548Z,45.63
2019-04-07T12:30:05.445Z,45.72
2019-04-07T12:31:06.217Z,45.82
2019-04-07T12:32:06.354Z,45.90
2019-04-07T12:33:07.882Z,45.95
2019-04-07T12:34:09.537Z,46.01
2019-04-07T12:35:07.397Z,46.06
2019-04-07T12:36:08.312Z,46.07
2019-04-07T12:37:09.065Z,46.09
2019-04-07T12:38:12.261Z,46.12
2019-04-07T12:39:09.410Z,46.13
2019-04-07T12:40:09.702Z,46.14
2019-04-07T12:41:16.338Z,46.12
2019-04-07T12:43:13.208Z,45.97
2019-04-07T12:44:11.580Z,45.84
2019-04-07T12:45:12.378Z,45.74
2019-04-07T12:48:13.449Z,45.38
2019-04-07T12:49:14.421Z,45.32
2019-04-07T12:51:14.939Z,45.14
2019-04-07T12:52:16.315Z,45.03
2019-04-07T12:53:15.804Z,44.96
2019-04-07T12:54:16.807Z,44.89
2019-04-07T12:55:17.989Z,44.80
2019-04-07T12:57:18.831Z,44.68
2019-04-07T12:58:18.133Z,44.62
2019-04-07T12:59:19.269Z,44.57
2019-04-07T13:00:22.654Z,44.52
2019-04-07T13:01:19.940Z,44.44
2019-04-07T13:02:20.370Z,44.40
2019-04-07T13:03:21.105Z,44.35
2019-04-07T13:04:20.947Z,44.33
2019-04-07T13:05:21.452Z,44.29
2019-04-07T13:06:22.235Z,44.25
2019-04-07T13:07:23.008Z,44.24
2019-04-07T13:08:24.649Z,44.19
2019-04-07T13:09:27.818Z,44.17
2019-04-07T13:10:25.312Z,44.15
2019-04-07T13:11:31.150Z,44.13
2019-04-07T13:12:25.838Z,44.12
2019-04-07T13:13:29.509Z,44.15
2019-04-07T13:15:26.117Z,44.09
2019-04-07T13:17:31.404Z,44.09
2019-04-07T13:18:30.346Z,44.09
2019-04-07T13:19:28.571Z,44.09
2019-04-07T13:20:28.725Z,44.09
2019-04-07T13:21:29.023Z,44.07
2019-04-07T13:22:31.981Z,44.07
2019-04-07T13:25:31.281Z,44.12
2019-04-07T13:26:32.386Z,44.07
2019-04-07T13:27:35.092Z,44.08
2019-04-07T13:28:32.641Z,44.12
2019-04-07T13:29:33.470Z,44.11
2019-04-07T13:30:33.457Z,44.09
2019-04-07T13:31:34.052Z,44.12
2019-04-07T13:32:40.959Z,44.09
2019-04-07T13:33:34.990Z,44.09
2019-04-07T13:34:35.059Z,44.08